Time;durP1;ratioP1;P1;durP2;ratioP2;P2;SDS_P1;SDS_P2;PMS_P1;PMS_P2;Temp;Humidity;BMP_temperature;BMP_pressure;BME280_temperature;BME280_humidity;BME280_pressure;Samples;Min_cycle;Max_cycle;Signal;HPM_P1;HPM_P2
2023/07/09 00:02:17;;;;;;;16.75;9.77;;;;;;;-145.63;48.95;38858.03;5046075;28;20041;-69
2023/07/09 00:04:43;;;;;;;15.35;9.85;;;;;;;-145.63;49.63;38887.34;5077604;28;20024;-69
2023/07/09 00:07:23;;;;;;;12.35;9.90;;;;;;;-145.63;49.56;38885.41;5074920;28;20116;-69
2023/07/09 00:09:49;;;;;;;16.30;9.80;;;;;;;-145.63;49.90;38877.56;5074452;28;20052;-68
2023/07/09 00:12:17;;;;;;;15.80;9.73;;;;;;;-145.63;50.32;38856.06;5082278;28;20052;-68
2023/07/09 00:14:43;;;;;;;15.35;9.75;;;;;;;-145.63;49.84;38889.31;5065763;28;20233;-68
2023/07/09 00:17:19;;;;;;;16.33;10.07;;;;;;;-145.63;50.67;38879.53;5065949;28;20045;-69
2023/07/09 00:19:45;;;;;;;17.48;10.88;;;;;;;-145.63;50.64;38910.81;5064128;28;20206;-69
2023/07/09 00:22:17;;;;;;;18.65;9.30;;;;;;;-145.63;50.22;38914.72;5076682;28;20027;-69
2023/07/09 00:24:44;;;;;;;12.93;9.90;;;;;;;-145.63;50.07;38891.28;5078145;28;20035;-70
2023/07/09 00:27:11;;;;;;;13.52;9.85;;;;;;;-145.63;50.22;38883.44;5068322;28;20068;-70
2023/07/09 00:29:37;;;;;;;12.25;9.55;;;;;;;-145.63;49.92;38885.41;5085538;28;20251;-70
2023/07/09 00:32:02;;;;;;;15.13;9.70;;;;;;;-145.63;50.38;38914.72;5067181;28;20033;-69
2023/07/09 00:34:28;;;;;;;15.18;10.10;;;;;;;-145.63;50.45;38899.09;5078160;28;20040;-70
2023/07/09 00:36:54;;;;;;;16.25;10.25;;;;;;;-145.63;50.31;38914.72;5065360;28;20037;-69
2023/07/09 00:39:22;;;;;;;15.38;9.98;;;;;;;-145.63;50.24;38899.09;5069332;28;20032;-69
2023/07/09 00:41:49;;;;;;;19.10;10.88;;;;;;;-145.63;50.47;38908.88;5068765;28;20031;-69
2023/07/09 00:44:20;;;;;;;16.00;9.65;;;;;;;-145.63;50.63;38920.59;5085341;28;20024;-69
2023/07/09 00:46:49;;;;;;;15.30;9.82;;;;;;;-145.63;50.74;38920.59;5068542;28;20033;-68
2023/07/09 00:49:29;;;;;;;19.13;10.27;;;;;;;-145.63;50.45;38875.63;5076714;28;20038;-69
2023/07/09 00:51:57;;;;;;;17.38;10.63;;;;;;;-145.63;50.48;38920.59;5076530;28;20275;-69
2023/07/09 00:54:36;;;;;;;15.30;9.63;;;;;;;-145.63;50.52;38944.06;5065176;28;20021;-69
2023/07/09 00:57:12;;;;;;;17.92;9.55;;;;;;;-145.63;50.63;38961.66;5065861;28;20052;-69
2023/07/09 00:59:39;;;;;;;17.88;10.32;;;;;;;-145.63;50.78;38914.72;5085655;28;20020;-69
2023/07/09 01:02:08;;;;;;;12.77;10.20;;;;;;;-145.63;50.51;38940.16;5065250;28;20269;-69
2023/07/09 01:04:35;;;;;;;16.27;10.35;;;;;;;-145.63;50.77;38895.19;5079007;28;20200;-69
2023/07/09 01:07:00;;;;;;;13.77;10.13;;;;;;;-145.63;50.56;38773.94;5074760;28;20088;-69
2023/07/09 01:09:26;;;;;;;15.20;9.93;;;;;;;-145.63;51.16;38928.44;5065092;28;20032;-69
2023/07/09 01:11:56;;;;;;;16.33;10.77;;;;;;;-145.63;50.62;38916.69;5064982;28;20029;-69
2023/07/09 01:14:24;;;;;;;14.13;10.43;;;;;;;-145.63;50.97;38908.88;5045030;28;20025;-69
2023/07/09 01:16:57;;;;;;;14.70;9.75;;;;;;;-145.63;50.87;38912.78;5076739;28;20029;-69
2023/07/09 01:19:25;;;;;;;14.38;9.52;;;;;;;-145.63;50.82;38926.47;5072322;28;20029;-69
2023/07/09 01:21:59;;;;;;;15.40;10.52;;;;;;;-145.63;50.89;38987.09;5065317;28;20032;-69
2023/07/09 01:25:02;;;;;;;17.33;10.20;;;;;;;-145.63;51.22;38914.72;5069003;28;20099;-69
2023/07/09 01:27:38;;;;;;;13.85;10.00;;;;;;;-145.63;51.26;38875.63;5079301;28;20047;-68
2023/07/09 01:30:16;;;;;;;17.42;10.75;;;;;;;-145.63;51.08;38961.66;5065668;28;20214;-69
2023/07/09 01:32:45;;;;;;;13.48;9.95;;;;;;;-145.63;51.37;38930.38;5083722;28;20025;-69
2023/07/09 01:35:14;;;;;;;18.80;10.07;;;;;;;-145.63;51.33;38947.97;5065189;28;20116;-69
2023/07/09 01:37:42;;;;;;;17.42;10.50;;;;;;;-145.63;51.51;38949.94;5064349;28;20067;-69
2023/07/09 01:40:10;;;;;;;15.27;10.25;;;;;;;-145.63;51.41;38953.84;5071031;28;20294;-68
2023/07/09 01:42:38;;;;;;;13.82;10.27;;;;;;;-145.63;51.59;38985.13;5069736;28;20083;-68
2023/07/09 01:45:05;;;;;;;16.02;10.70;;;;;;;-145.63;51.96;38944.06;5082639;28;20020;-70
2023/07/09 01:47:31;;;;;;;23.60;11.43;;;;;;;-145.63;51.68;38938.19;5064148;28;20021;-69
2023/07/09 01:49:57;;;;;;;16.92;10.52;;;;;;;-145.63;51.54;38947.97;5079130;28;20043;-68
2023/07/09 01:52:29;;;;;;;14.95;9.93;;;;;;;-145.63;51.52;38766.13;5084173;28;20021;-69
2023/07/09 01:54:55;;;;;;;14.38;10.07;;;;;;;-145.63;51.75;38947.97;5075899;28;20550;-68
2023/07/09 01:57:35;;;;;;;13.88;10.40;;;;;;;-145.63;51.48;38936.25;5067083;28;20032;-68
2023/07/09 02:00:06;;;;;;;14.93;10.25;;;;;;;-145.63;51.62;38883.44;5082979;28;20090;-68
2023/07/09 02:02:32;;;;;;;22.15;12.10;;;;;;;-145.63;51.88;38949.94;5063970;28;20028;-69
2023/07/09 02:04:58;;;;;;;14.20;9.65;;;;;;;-145.63;51.50;38916.69;5080306;28;20303;-68
2023/07/09 02:07:25;;;;;;;16.13;10.15;;;;;;;-145.63;50.99;38934.28;5071914;28;20343;-69
2023/07/09 02:09:51;;;;;;;14.07;9.57;;;;;;;-145.63;51.05;38955.81;5071313;28;20080;-69
2023/07/09 02:12:18;;;;;;;16.98;10.32;;;;;;;-145.63;51.28;38934.28;5080731;28;20048;-69
2023/07/09 02:14:45;;;;;;;14.00;10.25;;;;;;;-145.63;51.25;38920.59;5063534;28;20115;-69
2023/07/09 02:17:12;;;;;;;18.55;11.00;;;;;;;-145.63;51.17;38895.19;5082185;28;20040;-69
2023/07/09 02:19:38;;;;;;;16.20;11.00;;;;;;;-145.63;51.10;38947.97;5069488;28;20049;-68
2023/07/09 02:22:05;;;;;;;17.15;10.30;;;;;;;-145.63;50.93;38885.41;5072552;28;20066;-69
2023/07/09 02:24:31;;;;;;;19.65;10.48;;;;;;;-145.63;50.26;38873.66;5078935;28;20033;-68
2023/07/09 02:26:59;;;;;;;17.15;9.82;;;;;;;-145.63;50.16;38879.53;5063168;28;20078;-68
2023/07/09 02:29:26;;;;;;;14.60;10.15;;;;;;;-145.63;50.30;38891.28;5043447;28;20040;-69
2023/07/09 02:31:54;;;;;;;12.40;10.35;;;;;;;-145.63;50.32;38891.28;5058914;28;20028;-69
2023/07/09 02:34:19;;;;;;;14.60;10.02;;;;;;;-145.63;50.28;38891.28;5074368;28;20093;-69
2023/07/09 02:36:46;;;;;;;14.85;10.93;;;;;;;-145.63;50.48;38891.28;5063613;28;20290;-69
2023/07/09 02:39:13;;;;;;;15.95;9.75;;;;;;;-145.63;50.21;38936.25;5064879;28;20352;-69
2023/07/09 02:41:40;;;;;;;17.40;9.95;;;;;;;-145.63;50.28;38869.75;5067440;28;20020;-68
2023/07/09 02:44:06;;;;;;;12.70;9.25;;;;;;;-145.63;49.94;38699.63;5080612;28;20101;-69
2023/07/09 02:46:32;;;;;;;15.43;10.07;;;;;;;-145.63;50.28;38891.28;5070464;28;20036;-69
2023/07/09 02:48:58;;;;;;;11.85;8.93;;;;;;;-145.63;50.03;38883.44;5070941;28;20028;-69
2023/07/09 02:51:26;;;;;;;13.75;9.20;;;;;;;-145.63;50.17;38858.03;5080132;28;20058;-68
2023/07/09 02:53:54;;;;;;;12.18;8.80;;;;;;;-145.63;49.59;38949.94;5063415;28;20298;-69
2023/07/09 02:56:19;;;;;;;12.20;8.73;;;;;;;-145.63;49.66;38883.44;5061985;28;20055;-69
2023/07/09 02:58:45;;;;;;;14.75;8.57;;;;;;;-145.63;49.63;38879.53;5077669;28;20305;-69
2023/07/09 03:01:12;;;;;;;13.00;8.70;;;;;;;-145.63;49.34;38865.84;5073566;28;20040;-69
2023/07/09 03:03:38;;;;;;;11.70;8.68;;;;;;;-145.63;49.53;38838.47;5068316;28;20244;-68
2023/07/09 03:06:05;;;;;;;11.77;8.40;;;;;;;-145.63;49.22;38863.88;5082686;28;20033;-69
2023/07/09 03:08:31;;;;;;;14.15;8.80;;;;;;;-145.63;49.24;38867.81;5063097;28;20032;-69
2023/07/09 03:10:57;;;;;;;12.77;8.32;;;;;;;-145.63;49.30;38818.91;5078907;28;20238;-69
2023/07/09 03:13:22;;;;;;;13.57;8.60;;;;;;;-145.63;49.23;38867.81;5071798;28;20068;-69
2023/07/09 03:15:56;;;;;;;12.38;7.93;;;;;;;-145.63;48.98;38901.03;5069336;28;20028;-69
2023/07/09 03:18:22;;;;;;;14.00;8.23;;;;;;;-145.63;48.83;38793.50;5080018;28;20487;-69
2023/07/09 03:20:48;;;;;;;13.68;7.75;;;;;;;-145.63;48.16;38797.41;5062747;28;20021;-67
2023/07/09 03:23:13;;;;;;;11.65;8.02;;;;;;;-145.63;48.45;38818.91;5080835;28;20415;-69
2023/07/09 03:25:43;;;;;;;10.57;7.72;;;;;;;-145.63;48.41;38770.03;5069605;28;20037;-69
2023/07/09 03:28:10;;;;;;;11.95;7.68;;;;;;;-145.63;47.89;38793.50;5062746;28;20036;-69
2023/07/09 03:30:41;;;;;;;10.85;7.10;;;;;;;-145.63;47.40;38754.38;5061750;28;20225;-68
2023/07/09 03:33:07;;;;;;;10.85;7.13;;;;;;;-145.63;47.03;38551.03;5063230;28;20100;-69
2023/07/09 03:35:34;;;;;;;8.40;6.95;;;;;;;-145.63;46.82;38684.00;5073016;28;20092;-69
2023/07/09 03:37:59;;;;;;;11.10;6.28;;;;;;;-145.63;46.13;38658.56;5063397;28;20032;-68
2023/07/09 03:40:25;;;;;;;8.40;6.32;;;;;;;-145.63;45.72;38621.41;5068835;28;20017;-69
2023/07/09 03:42:51;;;;;;;8.52;6.75;;;;;;;-145.63;45.37;38637.06;5069360;28;20063;-68
2023/07/09 03:45:16;;;;;;;9.30;6.50;;;;;;;-145.63;45.26;38654.66;5080795;28;20036;-69
2023/07/09 03:47:42;;;;;;;11.43;6.72;;;;;;;-145.63;45.36;38635.09;5062728;28;20032;-68
2023/07/09 03:50:09;;;;;;;8.80;7.05;;;;;;;-145.63;44.79;38676.16;5079836;28;20084;-68
2023/07/09 03:52:35;;;;;;;10.50;6.40;;;;;;;-145.63;44.75;38629.22;5069913;28;20025;-69
2023/07/09 03:55:03;;;;;;;6.78;6.07;;;;;;;-145.63;44.29;38621.41;5070240;28;20083;-69
2023/07/09 03:57:34;;;;;;;8.38;5.85;;;;;;;-145.63;43.91;38615.53;5081987;28;20017;-69
2023/07/09 04:00:00;;;;;;;8.00;6.07;;;;;;;-145.63;43.49;38570.56;5066094;28;20029;-69
2023/07/09 04:02:25;;;;;;;10.02;6.07;;;;;;;-145.63;43.17;38568.63;5085988;28;20036;-69
2023/07/09 04:04:51;;;;;;;7.38;5.57;;;;;;;-145.63;43.28;38582.31;5072074;28;20055;-67
2023/07/09 04:07:17;;;;;;;11.13;5.80;;;;;;;-145.63;42.80;38488.44;5076333;28;20330;-69
2023/07/09 04:09:43;;;;;;;8.40;5.78;;;;;;;-145.63;42.75;38500.19;5080961;28;20156;-69
2023/07/09 04:12:09;;;;;;;8.98;5.45;;;;;;;-145.63;42.96;38515.81;5065840;28;20194;-69
2023/07/09 04:14:36;;;;;;;9.68;6.30;;;;;;;-145.63;42.52;38523.66;5065796;28;20289;-69
2023/07/09 04:17:03;;;;;;;11.30;5.43;;;;;;;-145.63;42.22;38509.97;5065786;28;20036;-69
2023/07/09 04:19:28;;;;;;;6.43;5.43;;;;;;;-145.63;42.39;38508.00;5077455;28;20081;-70
2023/07/09 04:21:54;;;;;;;6.00;4.47;;;;;;;-145.63;41.27;38476.72;5079089;28;20296;-69
2023/07/09 04:24:20;;;;;;;7.22;5.20;;;;;;;-145.63;41.59;38480.63;5067632;28;20257;-69
2023/07/09 04:26:46;;;;;;;7.72;5.20;;;;;;;-145.63;41.48;38418.06;5084711;28;20074;-69
2023/07/09 04:29:13;;;;;;;6.78;5.20;;;;;;;-145.63;41.70;38433.69;5068396;28;20025;-68
2023/07/09 04:31:40;;;;;;;10.32;5.53;;;;;;;-145.63;40.82;38435.66;5078502;28;20048;-69
2023/07/09 04:34:07;;;;;;;5.68;4.82;;;;;;;-145.63;40.89;38423.91;5076057;28;20095;-69
2023/07/09 04:36:33;;;;;;;7.57;4.60;;;;;;;-145.63;40.68;38421.97;5065481;28;20301;-69
2023/07/09 04:38:59;;;;;;;6.15;4.55;;;;;;;-145.63;40.04;38421.97;5065410;28;20028;-69
2023/07/09 04:41:25;;;;;;;5.57;3.80;;;;;;;-145.63;39.77;38412.19;5070909;28;20025;-69
2023/07/09 04:43:51;;;;;;;5.57;4.80;;;;;;;-145.63;40.06;38375.03;5079679;28;20359;-68
2023/07/09 04:46:16;;;;;;;8.13;5.30;;;;;;;-145.63;40.47;38398.50;5075492;28;20104;-69
2023/07/09 04:48:42;;;;;;;5.32;4.10;;;;;;;-145.63;39.22;38361.34;5070090;28;20031;-69
2023/07/09 04:51:08;;;;;;;5.40;4.30;;;;;;;-145.63;39.66;38345.72;5085088;28;20217;-68
2023/07/09 04:53:34;;;;;;;5.53;4.10;;;;;;;-145.63;39.56;38347.66;5065268;28;20029;-69
2023/07/09 04:56:02;;;;;;;4.78;4.28;;;;;;;-145.63;39.09;38347.66;5080425;28;20328;-69
2023/07/09 04:58:29;;;;;;;8.18;4.65;;;;;;;-145.63;39.28;38373.09;5074040;28;20028;-68
2023/07/09 05:00:58;;;;;;;5.55;4.47;;;;;;;-145.63;39.73;38316.38;5070142;28;20036;-68
2023/07/09 05:03:24;;;;;;;5.80;3.80;;;;;;;-145.63;38.96;38332.03;5083154;28;20257;-69
2023/07/09 05:05:50;;;;;;;4.88;4.15;;;;;;;-145.63;37.84;38289.00;5064953;28;20055;-69
2023/07/09 05:08:17;;;;;;;6.13;3.58;;;;;;;-145.63;37.39;38269.47;5081119;28;20028;-69
2023/07/09 05:10:49;;;;;;;6.82;3.72;;;;;;;-145.63;37.47;38271.41;5071903;28;20380;-68
2023/07/09 05:13:16;;;;;;;6.53;3.75;;;;;;;-145.63;36.16;38275.31;5064888;28;20078;-68
2023/07/09 05:15:44;;;;;;;6.07;3.97;;;;;;;-145.63;37.08;38251.84;5064731;28;20085;-69
2023/07/09 05:18:10;;;;;;;4.95;3.83;;;;;;;-145.63;35.63;38185.38;5064668;28;20025;-69
2023/07/09 05:20:36;;;;;;;4.53;3.40;;;;;;;-145.63;35.40;38183.44;5084653;28;20254;-68
2023/07/09 05:23:02;;;;;;;7.03;3.47;;;;;;;-145.63;34.46;38234.25;5068875;28;20025;-69
2023/07/09 05:25:28;;;;;;;4.68;3.60;;;;;;;-145.63;34.25;38179.50;5075338;28;20029;-68
2023/07/09 05:27:53;;;;;;;4.32;3.70;;;;;;;-145.63;33.59;38148.22;5078904;28;20071;-69
2023/07/09 05:30:19;;;;;;;3.17;2.85;;;;;;;-145.63;33.87;38126.72;5065497;28;20021;-69
2023/07/09 05:32:46;;;;;;;3.70;3.33;;;;;;;-145.63;33.63;38097.41;5084470;28;20028;-68
2023/07/09 05:35:12;;;;;;;5.53;3.90;;;;;;;-145.63;34.49;38093.50;5067295;28;20029;-69
2023/07/09 05:37:38;;;;;;;5.43;3.40;;;;;;;-145.63;34.53;38113.03;5064514;28;20036;-69
2023/07/09 05:40:05;;;;;;;5.40;4.13;;;;;;;-145.63;32.74;38115.00;5068970;28;20028;-69
2023/07/09 05:42:32;;;;;;;5.97;3.80;;;;;;;-145.63;33.57;38062.22;5064123;28;20326;-69
2023/07/09 05:44:58;;;;;;;6.10;4.38;;;;;;;-145.63;33.83;38097.41;5064524;28;20083;-69
2023/07/09 05:47:24;;;;;;;4.88;3.28;;;;;;;-145.63;32.01;38116.94;5064559;28;20035;-69
2023/07/09 05:49:50;;;;;;;6.90;3.70;;;;;;;-145.63;32.12;38122.81;5059647;28;20025;-69
2023/07/09 05:52:17;;;;;;;3.97;3.58;;;;;;;-145.63;32.95;38066.13;5074845;28;20036;-68
2023/07/09 05:54:43;;;;;;;3.22;2.92;;;;;;;-145.63;31.00;38097.41;5063969;28;20025;-69
2023/07/09 05:57:10;;;;;;;3.15;2.83;;;;;;;-145.63;31.04;38116.94;5064218;28;20027;-69
2023/07/09 05:59:36;;;;;;;5.30;2.72;;;;;;;-145.63;31.35;38095.44;5083811;28;20024;-69
2023/07/09 06:02:02;;;;;;;4.90;3.40;;;;;;;-145.63;30.70;38073.94;5068520;28;20087;-68
2023/07/09 06:04:30;;;;;;;3.25;2.85;;;;;;;-145.63;30.18;38028.97;5081793;28;20028;-69
2023/07/09 06:06:56;;;;;;;4.35;2.85;;;;;;;-145.63;31.38;38030.94;5077738;28;20314;-69
2023/07/09 06:09:22;;;;;;;3.80;3.17;;;;;;;-145.63;30.31;38038.75;5065010;28;20040;-69
2023/07/09 06:11:48;;;;;;;3.45;2.83;;;;;;;-145.63;30.80;37999.66;5084128;28;20082;-69
2023/07/09 06:14:16;;;;;;;3.60;2.70;;;;;;;-145.63;31.72;37985.97;5066857;28;20029;-68
2023/07/09 06:16:43;;;;;;;4.05;3.10;;;;;;;-145.63;31.45;37989.88;5076159;28;20055;-68
2023/07/09 06:19:09;;;;;;;6.97;4.53;;;;;;;-145.63;31.20;37978.13;5075731;28;20270;-69
2023/07/09 06:21:35;;;;;;;4.22;2.92;;;;;;;-145.63;30.01;37960.53;5063714;28;20309;-68
2023/07/09 06:24:00;;;;;;;6.80;2.72;;;;;;;-145.63;30.41;37937.09;5063608;28;20025;-67
2023/07/09 06:26:26;;;;;;;3.92;3.00;;;;;;;-145.63;30.50;37995.72;5081742;28;20021;-68
2023/07/09 06:28:51;;;;;;;4.93;3.15;;;;;;;-145.63;30.31;37925.34;5070353;28;20039;-68
2023/07/09 06:31:18;;;;;;;3.75;3.45;;;;;;;-145.63;30.31;37941.00;5072419;28;20081;-67
2023/07/09 06:33:44;;;;;;;4.18;3.25;;;;;;;-145.63;30.32;37960.53;5080962;28;20017;-68
2023/07/09 06:36:10;;;;;;;7.05;3.35;;;;;;;-145.63;29.98;37978.13;5064122;28;20028;-69
2023/07/09 06:38:35;;;;;;;4.18;3.28;;;;;;;-145.63;29.09;37555.88;5062226;28;20052;-69
2023/07/09 06:41:01;;;;;;;4.75;3.45;;;;;;;-145.63;29.70;37995.72;5066900;28;20017;-68
2023/07/09 06:43:27;;;;;;;3.78;3.15;;;;;;;-145.63;30.48;37968.38;5073212;28;20052;-68
2023/07/09 06:45:58;;;;;;;3.35;2.70;;;;;;;-145.63;30.83;37935.13;5078056;28;20033;-69
2023/07/09 06:48:26;;;;;;;6.05;3.00;;;;;;;-145.63;30.91;37911.66;5064563;28;20033;-70
2023/07/09 06:50:53;;;;;;;4.60;3.10;;;;;;;-145.63;30.68;37917.53;5083606;28;20025;-70
2023/07/09 06:53:20;;;;;;;5.50;3.20;;;;;;;-145.63;29.69;37876.47;5066559;28;20037;-69
2023/07/09 06:55:48;;;;;;;5.60;3.20;;;;;;;-145.63;27.87;37868.66;5063051;28;20070;-69
2023/07/09 06:58:16;;;;;;;4.43;3.00;;;;;;;-145.63;28.67;37854.97;5063262;28;20373;-68
2023/07/09 07:00:42;;;;;;;3.47;2.90;;;;;;;-145.63;29.14;37915.56;5066696;28;20035;-69
2023/07/09 07:03:09;;;;;;;4.57;3.08;;;;;;;-145.63;29.47;37864.75;5065472;28;20032;-68
2023/07/09 07:05:35;;;;;;;3.67;3.30;;;;;;;-145.63;29.00;37831.50;5063347;28;20040;-68
2023/07/09 07:08:02;;;;;;;5.72;3.15;;;;;;;-145.63;29.20;37854.97;5078809;28;20024;-69
2023/07/09 07:10:28;;;;;;;3.60;2.88;;;;;;;-145.63;28.34;37886.25;5073257;28;20359;-68
2023/07/09 07:12:54;;;;;;;3.85;3.25;;;;;;;-145.63;29.16;37843.25;5063400;28;20033;-69
2023/07/09 07:15:20;;;;;;;5.18;3.00;;;;;;;-145.63;28.58;37937.09;5062910;28;20025;-69
2023/07/09 07:17:46;;;;;;;3.10;2.80;;;;;;;-145.63;27.45;37923.41;5063283;28;20021;-68
2023/07/09 07:20:13;;;;;;;5.15;2.80;;;;;;;-145.63;27.89;37843.25;5078440;28;20028;-69
2023/07/09 07:22:39;;;;;;;3.42;2.85;;;;;;;-145.63;28.04;37831.50;5071912;28;20025;-69
2023/07/09 07:25:06;;;;;;;5.50;3.05;;;;;;;-145.63;27.92;37823.69;5069741;28;20027;-69
2023/07/09 07:27:32;;;;;;;5.30;2.65;;;;;;;-145.63;27.24;37761.13;5081238;28;20048;-69
2023/07/09 07:29:58;;;;;;;3.92;3.25;;;;;;;-145.63;27.60;37786.53;5063026;28;20020;-68
2023/07/09 07:32:24;;;;;;;4.22;2.85;;;;;;;-145.63;26.87;37755.25;5083093;28;20059;-68
2023/07/09 07:34:50;;;;;;;3.08;2.85;;;;;;;-145.63;27.28;37698.56;5074235;28;20033;-69
2023/07/09 07:37:21;;;;;;;3.53;2.80;;;;;;;-145.63;26.33;37737.66;5066620;28;20179;-69
2023/07/09 07:39:47;;;;;;;;;;;;;;;-145.63;25.94;37794.38;5071174;28;20035;-69
2023/07/09 07:42:13;;;;;;;5.10;2.97;;;;;;;-145.63;27.28;37770.91;5066703;28;19908;-69
2023/07/09 07:44:38;;;;;;;4.22;2.92;;;;;;;-145.63;27.02;37772.84;5085825;28;20024;-70
2023/07/09 07:47:05;;;;;;;3.65;2.90;;;;;;;-145.63;26.12;37698.56;5072115;28;20025;-69
2023/07/09 07:49:31;;;;;;;6.43;3.25;;;;;;;-145.63;26.66;37192.28;5066709;28;20098;-69
2023/07/09 07:51:56;;;;;;;3.72;2.90;;;;;;;-145.63;27.62;37682.94;5071898;28;20357;-69
2023/07/09 07:54:22;;;;;;;3.38;2.63;;;;;;;-145.63;26.40;37706.38;5086183;28;20060;-69
2023/07/09 07:56:47;;;;;;;5.72;2.92;;;;;;;-145.63;25.66;37725.94;5066209;28;20122;-68
2023/07/09 07:59:14;;;;;;;4.30;3.08;;;;;;;-145.63;26.65;37761.13;5081861;28;20024;-68
2023/07/09 08:01:40;;;;;;;7.60;5.63;;;;;;;-145.63;26.68;37727.91;5075239;28;20025;-69
2023/07/09 08:04:06;;;;;;;6.35;3.50;;;;;;;-145.63;26.66;37706.38;5072292;28;20363;-69
2023/07/09 08:06:32;;;;;;;4.22;3.83;;;;;;;-145.63;26.38;37702.47;5069050;28;20028;-69
2023/07/09 08:08:58;;;;;;;6.82;3.30;;;;;;;-145.63;28.00;37768.94;5065762;28;20070;-69
2023/07/09 08:11:24;;;;;;;5.28;3.03;;;;;;;-145.63;27.37;37810.00;5066072;28;20070;-69
2023/07/09 08:13:50;;;;;;;5.55;3.13;;;;;;;-145.63;27.15;37722.03;5066029;28;20056;-69
2023/07/09 08:16:16;;;;;;;5.45;3.30;;;;;;;-145.63;27.06;37686.84;5066219;28;20298;-69
2023/07/09 08:18:42;;;;;;;5.22;3.65;;;;;;;-145.63;27.71;37649.69;5068952;28;20066;-69
2023/07/09 08:21:09;;;;;;;4.00;3.00;;;;;;;-145.63;26.38;37659.47;5086081;28;20024;-68
2023/07/09 08:23:35;;;;;;;5.43;3.58;;;;;;;-145.63;26.42;37655.56;5067630;28;20032;-68
2023/07/09 08:26:02;;;;;;;2.70;2.45;;;;;;;-145.63;25.43;37706.38;5079124;28;20052;-68
2023/07/09 08:28:29;;;;;;;5.05;2.70;;;;;;;-145.63;25.73;37667.28;5076755;28;20029;-70
2023/07/09 08:30:56;;;;;;;3.70;3.20;;;;;;;-145.63;24.81;37682.94;5070147;28;20058;-67
2023/07/09 08:33:23;;;;;;;4.25;2.70;;;;;;;-145.63;25.88;37634.06;5085878;28;20024;-68
2023/07/09 08:35:50;;;;;;;3.88;3.22;;;;;;;-145.63;26.42;37632.09;5057845;28;20048;-68
2023/07/09 08:38:16;;;;;;;4.57;2.83;;;;;;;-145.63;25.50;37538.25;5065596;28;20092;-70
2023/07/09 08:40:52;;;;;;;3.45;2.50;;;;;;;-145.63;24.74;37639.91;5068332;28;20024;-69
2023/07/09 08:43:56;;;;;;;3.30;2.90;;;;;;;-145.63;24.83;37632.09;5073170;28;20029;-68
2023/07/09 08:46:51;;;;;;;22.38;18.50;;;;;;;-145.63;25.50;37444.44;5046317;28;20045;-70
2023/07/09 08:49:38;;;;;;;3.80;2.50;;;;;;;-145.63;25.69;37581.28;5066948;28;20039;-68
2023/07/09 08:52:14;;;;;;;3.25;2.95;;;;;;;-145.63;24.60;36887.34;5081582;28;20075;-68
2023/07/09 08:54:41;;;;;;;2.72;2.53;;;;;;;-145.63;24.61;37614.50;5067800;28;20070;-69
2023/07/09 08:57:27;;;;;;;3.35;2.50;;;;;;;-145.63;24.44;37651.66;5086065;28;20047;-69
2023/07/09 09:00:07;;;;;;;2.88;2.67;;;;;;;-145.63;24.97;37600.81;5045205;28;20025;-69
2023/07/09 09:02:43;;;;;;;9.65;7.75;;;;;;;-145.63;24.84;37550.00;5080490;28;20087;-68
2023/07/09 09:05:15;;;;;;;3.35;2.95;;;;;;;-145.63;25.69;37553.91;5070664;28;20043;-69
2023/07/09 09:07:41;;;;;;;;;;;;;;;-145.63;24.38;37536.31;5065576;28;20059;-68
2023/07/09 09:10:17;;;;;;;4.85;2.83;;;;;;;-145.63;25.03;37446.38;5071143;28;19912;-69
2023/07/09 09:13:13;;;;;;;4.32;3.40;;;;;;;-145.63;23.11;37510.91;5082500;28;20230;-70
2023/07/09 09:15:42;;;;;;;3.53;2.80;;;;;;;-145.63;23.93;37475.72;5066756;28;20028;-69
2023/07/09 09:18:28;;;;;;;3.80;2.33;;;;;;;-145.63;23.29;37448.34;5084684;28;20029;-69
2023/07/09 09:21:01;;;;;;;3.55;2.70;;;;;;;-145.63;24.16;37405.34;5044644;28;20088;-69
2023/07/09 09:23:37;;;;;;;5.57;4.47;;;;;;;-145.63;23.47;37385.78;5078018;28;20255;-68
2023/07/09 09:26:14;;;;;;;3.03;2.72;;;;;;;-145.63;23.22;37460.06;5070924;28;20139;-68
2023/07/09 09:28:39;;;;;;;3.40;3.10;;;;;;;-145.63;23.89;37477.66;5074608;28;20035;-68
2023/07/09 09:31:07;;;;;;;4.65;2.80;;;;;;;-145.63;24.25;37204.00;5079232;28;20029;-68
2023/07/09 09:33:44;;;;;;;3.50;2.85;;;;;;;-145.63;24.04;37419.03;5065519;28;20020;-69
2023/07/09 09:36:25;;;;;;;3.22;2.55;;;;;;;-145.63;24.05;37401.44;5070530;28;20036;-69
2023/07/09 09:38:51;;;;;;;4.10;2.42;;;;;;;-145.63;24.64;37376.00;5084759;28;20024;-69
2023/07/09 09:41:22;;;;;;;2.72;2.50;;;;;;;-145.63;23.08;37348.66;5068932;28;20033;-69
2023/07/09 09:43:50;;;;;;;5.93;2.63;;;;;;;-145.63;23.84;37383.84;5063150;28;20059;-70
2023/07/09 09:46:19;;;;;;;3.88;2.58;;;;;;;-145.63;24.54;37342.78;5071022;28;20039;-70
2023/07/09 09:48:47;;;;;;;3.85;2.60;;;;;;;-145.63;25.05;37381.88;5081953;28;20077;-67
2023/07/09 09:51:14;;;;;;;3.78;2.55;;;;;;;-145.63;25.09;37448.34;5064093;28;20066;-70
2023/07/09 09:53:45;;;;;;;27.60;18.73;;;;;;;-145.63;25.06;37456.16;5063262;28;20032;-68
2023/07/09 09:56:20;;;;;;;4.93;3.43;;;;;;;-145.63;24.66;37381.88;5063572;28;20051;-68
2023/07/09 09:58:51;;;;;;;3.13;2.35;;;;;;;-145.63;23.81;37428.78;5063670;28;20088;-68
2023/07/09 10:01:18;;;;;;;5.60;2.97;;;;;;;-145.63;24.45;37422.94;5064504;28;20021;-68
2023/07/09 10:03:46;;;;;;;4.00;2.70;;;;;;;-145.63;24.85;37389.69;5066142;28;20314;-69
2023/07/09 10:06:18;;;;;;;6.32;2.90;;;;;;;-145.63;24.00;37467.91;5084258;28;20094;-69
2023/07/09 10:08:49;;;;;;;;;;;;;;;-145.63;24.48;37403.38;5065617;28;20047;-67
2023/07/09 10:11:18;;;;;;;3.65;2.72;;;;;;;-145.63;25.59;37442.47;5078457;28;19919;-68
2023/07/09 10:13:45;;;;;;;7.13;6.40;;;;;;;-145.63;24.69;37397.53;5073724;28;20033;-69
2023/07/09 10:16:21;;;;;;;2.55;2.35;;;;;;;-145.63;23.23;37567.59;5069327;28;20029;-70
2023/07/09 10:19:14;;;;;;;3.47;2.88;;;;;;;-145.63;24.11;37405.34;5081700;28;20032;-70
2023/07/09 10:21:45;;;;;;;5.97;3.00;;;;;;;-145.63;23.32;37387.75;5065106;28;20029;-69
2023/07/09 10:24:35;;;;;;;4.13;2.58;;;;;;;-145.63;23.44;37456.16;5084021;28;20063;-70
2023/07/09 10:27:19;;;;;;;4.95;2.90;;;;;;;-145.63;24.49;37370.16;5043696;28;20132;-70
2023/07/09 10:30:10;;;;;;;4.43;2.45;;;;;;;-145.63;24.01;37473.75;5081301;28;20024;-67
2023/07/09 10:33:11;;;;;;;4.15;2.55;;;;;;;-145.63;23.69;37462.03;5064912;28;20074;-68
2023/07/09 10:36:01;;;;;;;3.88;2.45;;;;;;;-145.63;24.35;37438.56;5070694;28;20091;-70
2023/07/09 10:38:44;;;;;;;3.95;2.25;;;;;;;-145.63;25.07;37444.44;5078061;28;20099;-70
2023/07/09 10:41:13;;;;;;;2.92;2.63;;;;;;;-145.63;25.41;36779.84;5064299;28;20064;-70
2023/07/09 10:43:47;;;;;;;3.33;2.90;;;;;;;-145.63;25.14;37518.72;5072996;28;20030;-69
2023/07/09 10:46:21;;;;;;;4.90;2.65;;;;;;;-145.63;25.61;37508.94;5077554;28;20033;-68
2023/07/09 10:48:51;;;;;;;3.20;2.90;;;;;;;-145.63;26.73;37114.09;5065722;28;20025;-69
2023/07/09 10:51:38;;;;;;;3.75;2.75;;;;;;;-145.63;25.49;37526.53;5083523;28;20376;-69
2023/07/09 10:54:12;;;;;;;9.52;7.70;;;;;;;-145.63;26.04;37575.41;5043294;28;20033;-69
2023/07/09 10:56:39;;;;;;;7.28;3.72;;;;;;;-145.63;25.33;37589.09;5077178;28;20036;-69
2023/07/09 10:59:39;;;;;;;3.53;2.78;;;;;;;-145.63;25.56;37561.72;5069523;28;20028;-69
2023/07/09 11:02:21;;;;;;;3.92;2.90;;;;;;;-145.63;25.67;37452.25;5075834;28;20040;-69
2023/07/09 11:04:54;;;;;;;;;;;;;;;-145.63;25.09;37460.06;5073374;28;20031;-69
2023/07/09 11:07:29;;;;;;;3.35;2.58;;;;;;;-145.63;25.29;37491.34;5072956;28;19962;-69
2023/07/09 11:09:58;;;;;;;3.40;3.10;;;;;;;-145.63;25.52;37532.41;5084423;28;20052;-69
2023/07/09 11:12:42;;;;;;;5.53;3.00;;;;;;;-145.63;26.44;37581.28;5066446;28;20033;-69
2023/07/09 11:15:24;;;;;;;4.25;2.72;;;;;;;-145.63;25.33;37673.16;5047388;28;20025;-69
2023/07/09 11:17:49;;;;;;;3.70;2.90;;;;;;;-145.63;25.75;37682.94;5084669;28;20078;-69
2023/07/09 11:20:25;;;;;;;59.83;40.42;;;;;;;-145.63;26.18;37688.78;5071709;28;20024;-69
2023/07/09 11:23:03;;;;;;;9.88;6.93;;;;;;;-145.63;26.11;37694.66;5077949;28;20028;-69
2023/07/09 11:25:47;;;;;;;4.63;2.90;;;;;;;-145.63;26.46;37598.88;5079453;28;20025;-69